sensor_id;sensor_type;location;lat;lon;timestamp;temperature;humidity
75500;DHT22;64076;51.466;7.260;2023-05-10T00:01:21;25.50;46.90
75500;DHT22;64076;51.466;7.260;2023-05-10T00:03:46;25.50;46.90
75500;DHT22;64076;51.466;7.260;2023-05-10T00:06:12;25.50;46.90
75500;DHT22;64076;51.466;7.260;2023-05-10T00:08:37;25.50;46.80
75500;DHT22;64076;51.466;7.260;2023-05-10T00:11:03;25.50;46.90
75500;DHT22;64076;51.466;7.260;2023-05-10T00:13:28;25.50;46.80
75500;DHT22;64076;51.466;7.260;2023-05-10T00:15:54;25.50;46.90
75500;DHT22;64076;51.466;7.260;2023-05-10T00:18:20;25.50;46.90
75500;DHT22;64076;51.466;7.260;2023-05-10T00:20:45;25.50;46.80
75500;DHT22;64076;51.466;7.260;2023-05-10T00:23:11;25.50;46.80
75500;DHT22;64076;51.466;7.260;2023-05-10T00:25:37;25.50;46.80
75500;DHT22;64076;51.466;7.260;2023-05-10T00:28:02;25.50;46.80
75500;DHT22;64076;51.466;7.260;2023-05-10T00:30:28;25.50;46.80
75500;DHT22;64076;51.466;7.260;2023-05-10T00:32:54;25.50;46.80
75500;DHT22;64076;51.466;7.260;2023-05-10T00:35:19;25.40;46.80
75500;DHT22;64076;51.466;7.260;2023-05-10T00:37:45;25.50;46.80
75500;DHT22;64076;51.466;7.260;2023-05-10T00:40:11;25.40;46.80
75500;DHT22;64076;51.466;7.260;2023-05-10T00:42:36;25.40;46.80
75500;DHT22;64076;51.466;7.260;2023-05-10T00:45:02;25.40;46.80
75500;DHT22;64076;51.466;7.260;2023-05-10T00:47:28;25.40;46.80
75500;DHT22;64076;51.466;7.260;2023-05-10T00:49:54;25.40;46.70
75500;DHT22;64076;51.466;7.260;2023-05-10T00:52:21;25.40;46.80
75500;DHT22;64076;51.466;7.260;2023-05-10T00:54:49;25.40;46.70
75500;DHT22;64076;51.466;7.260;2023-05-10T00:57:14;25.40;46.80
75500;DHT22;64076;51.466;7.260;2023-05-10T00:59:40;25.40;46.70
75500;DHT22;64076;51.466;7.260;2023-05-10T01:02:06;25.40;46.70
75500;DHT22;64076;51.466;7.260;2023-05-10T01:04:32;25.40;46.70
75500;DHT22;64076;51.466;7.260;2023-05-10T01:06:58;25.40;46.80
75500;DHT22;64076;51.466;7.260;2023-05-10T01:09:24;25.40;46.70
75500;DHT22;64076;51.466;7.260;2023-05-10T01:11:51;25.40;46.70
75500;DHT22;64076;51.466;7.260;2023-05-10T01:14:18;25.40;46.80
75500;DHT22;64076;51.466;7.260;2023-05-10T01:16:45;25.40;46.80
75500;DHT22;64076;51.466;7.260;2023-05-10T01:19:29;25.40;46.70
75500;DHT22;64076;51.466;7.260;2023-05-10T01:22:07;25.40;46.70
75500;DHT22;64076;51.466;7.260;2023-05-10T01:33:27;25.30;46.70
75500;DHT22;64076;51.466;7.260;2023-05-10T01:39:20;25.40;46.70
75500;DHT22;64076;51.466;7.260;2023-05-10T01:42:11;25.30;46.70
75500;DHT22;64076;51.466;7.260;2023-05-10T01:44:41;25.30;46.70
75500;DHT22;64076;51.466;7.260;2023-05-10T01:49:45;25.30;46.70
75500;DHT22;64076;51.466;7.260;2023-05-10T01:52:14;25.30;46.70
75500;DHT22;64076;51.466;7.260;2023-05-10T01:54:45;25.30;46.80
75500;DHT22;64076;51.466;7.260;2023-05-10T01:57:16;25.30;46.70
75500;DHT22;64076;51.466;7.260;2023-05-10T01:59:43;25.30;46.70
75500;DHT22;64076;51.466;7.260;2023-05-10T02:02:11;25.30;46.60
75500;DHT22;64076;51.466;7.260;2023-05-10T02:04:42;25.30;46.60
75500;DHT22;64076;51.466;7.260;2023-05-10T02:07:09;25.30;46.60
75500;DHT22;64076;51.466;7.260;2023-05-10T02:09:36;25.30;46.60
75500;DHT22;64076;51.466;7.260;2023-05-10T02:12:03;25.30;46.60
75500;DHT22;64076;51.466;7.260;2023-05-10T02:14:32;25.30;46.50
75500;DHT22;64076;51.466;7.260;2023-05-10T02:16:59;25.30;46.60
75500;DHT22;64076;51.466;7.260;2023-05-10T02:19:27;25.30;46.60
75500;DHT22;64076;51.466;7.260;2023-05-10T02:21:55;25.30;46.60
75500;DHT22;64076;51.466;7.260;2023-05-10T02:24:22;25.30;46.50
75500;DHT22;64076;51.466;7.260;2023-05-10T02:26:50;25.30;46.50
75500;DHT22;64076;51.466;7.260;2023-05-10T02:29:17;25.30;46.50
75500;DHT22;64076;51.466;7.260;2023-05-10T02:31:44;25.30;46.60
75500;DHT22;64076;51.466;7.260;2023-05-10T02:34:11;25.30;46.50
75500;DHT22;64076;51.466;7.260;2023-05-10T02:36:39;25.30;46.60
75500;DHT22;64076;51.466;7.260;2023-05-10T02:39:06;25.30;46.50
75500;DHT22;64076;51.466;7.260;2023-05-10T02:41:35;25.30;46.50
75500;DHT22;64076;51.466;7.260;2023-05-10T02:44:02;25.30;46.40
75500;DHT22;64076;51.466;7.260;2023-05-10T02:46:29;25.30;46.50
75500;DHT22;64076;51.466;7.260;2023-05-10T02:48:55;25.30;46.50
75500;DHT22;64076;51.466;7.260;2023-05-10T02:51:25;25.30;46.40
75500;DHT22;64076;51.466;7.260;2023-05-10T02:53:54;25.30;46.40
75500;DHT22;64076;51.466;7.260;2023-05-10T02:56:25;25.30;46.40
75500;DHT22;64076;51.466;7.260;2023-05-10T02:58:54;25.30;46.40
75500;DHT22;64076;51.466;7.260;2023-05-10T03:01:20;25.30;46.40
75500;DHT22;64076;51.466;7.260;2023-05-10T03:03:45;25.30;46.40
75500;DHT22;64076;51.466;7.260;2023-05-10T03:06:11;25.30;46.40
75500;DHT22;64076;51.466;7.260;2023-05-10T03:08:37;25.30;46.40
75500;DHT22;64076;51.466;7.260;2023-05-10T03:11:39;25.30;46.40
75500;DHT22;64076;51.466;7.260;2023-05-10T03:14:13;25.30;46.40
75500;DHT22;64076;51.466;7.260;2023-05-10T03:17:04;25.30;46.30
75500;DHT22;64076;51.466;7.260;2023-05-10T03:19:48;25.20;46.40
75500;DHT22;64076;51.466;7.260;2023-05-10T03:22:24;25.20;46.30
75500;DHT22;64076;51.466;7.260;2023-05-10T03:24:53;25.20;46.30
75500;DHT22;64076;51.466;7.260;2023-05-10T03:27:23;25.20;46.40
75500;DHT22;64076;51.466;7.260;2023-05-10T03:29:49;25.20;46.30
75500;DHT22;64076;51.466;7.260;2023-05-10T03:32:16;25.20;46.30
75500;DHT22;64076;51.466;7.260;2023-05-10T03:34:42;25.20;46.30
75500;DHT22;64076;51.466;7.260;2023-05-10T03:37:10;25.20;46.20
75500;DHT22;64076;51.466;7.260;2023-05-10T03:39:36;25.20;46.20
75500;DHT22;64076;51.466;7.260;2023-05-10T03:42:02;25.20;46.30
75500;DHT22;64076;51.466;7.260;2023-05-10T03:44:27;25.20;46.20
75500;DHT22;64076;51.466;7.260;2023-05-10T03:46:53;25.20;46.30
75500;DHT22;64076;51.466;7.260;2023-05-10T03:49:19;25.20;46.20
75500;DHT22;64076;51.466;7.260;2023-05-10T03:51:44;25.20;46.20
75500;DHT22;64076;51.466;7.260;2023-05-10T03:54:10;25.20;46.20
75500;DHT22;64076;51.466;7.260;2023-05-10T03:56:35;25.20;46.20
75500;DHT22;64076;51.466;7.260;2023-05-10T03:59:01;25.20;46.20
75500;DHT22;64076;51.466;7.260;2023-05-10T04:01:26;25.20;46.20
75500;DHT22;64076;51.466;7.260;2023-05-10T04:03:52;25.20;46.20
75500;DHT22;64076;51.466;7.260;2023-05-10T04:06:17;25.20;46.20
75500;DHT22;64076;51.466;7.260;2023-05-10T04:08:43;25.20;46.10
75500;DHT22;64076;51.466;7.260;2023-05-10T04:11:10;25.20;46.10
75500;DHT22;64076;51.466;7.260;2023-05-10T04:13:36;25.20;46.20
75500;DHT22;64076;51.466;7.260;2023-05-10T04:16:02;25.20;46.10
75500;DHT22;64076;51.466;7.260;2023-05-10T04:18:28;25.20;46.20
75500;DHT22;64076;51.466;7.260;2023-05-10T04:20:53;25.20;46.10
75500;DHT22;64076;51.466;7.260;2023-05-10T04:23:19;25.20;46.10
75500;DHT22;64076;51.466;7.260;2023-05-10T04:25:44;25.20;46.10
75500;DHT22;64076;51.466;7.260;2023-05-10T04:28:10;25.20;46.10
75500;DHT22;64076;51.466;7.260;2023-05-10T04:30:35;25.20;46.10
75500;DHT22;64076;51.466;7.260;2023-05-10T04:33:01;25.20;46.10
75500;DHT22;64076;51.466;7.260;2023-05-10T04:35:27;25.20;46.10
75500;DHT22;64076;51.466;7.260;2023-05-10T04:37:53;25.20;46.10
75500;DHT22;64076;51.466;7.260;2023-05-10T04:40:19;25.20;46.10
75500;DHT22;64076;51.466;7.260;2023-05-10T04:42:45;25.20;46.10
75500;DHT22;64076;51.466;7.260;2023-05-10T04:45:11;25.10;46.00
75500;DHT22;64076;51.466;7.260;2023-05-10T04:47:37;25.20;46.00
75500;DHT22;64076;51.466;7.260;2023-05-10T04:50:03;25.10;46.10
75500;DHT22;64076;51.466;7.260;2023-05-10T04:52:29;25.20;46.00
75500;DHT22;64076;51.466;7.260;2023-05-10T04:54:54;25.10;46.10
75500;DHT22;64076;51.466;7.260;2023-05-10T04:57:20;25.10;46.10
75500;DHT22;64076;51.466;7.260;2023-05-10T04:59:46;25.20;46.00
75500;DHT22;64076;51.466;7.260;2023-05-10T05:02:12;25.10;46.00
75500;DHT22;64076;51.466;7.260;2023-05-10T05:04:37;25.10;46.00
75500;DHT22;64076;51.466;7.260;2023-05-10T05:07:03;25.10;46.00
75500;DHT22;64076;51.466;7.260;2023-05-10T05:09:28;25.10;46.00
75500;DHT22;64076;51.466;7.260;2023-05-10T05:11:54;25.10;46.00
75500;DHT22;64076;51.466;7.260;2023-05-10T05:14:19;25.10;46.10
75500;DHT22;64076;51.466;7.260;2023-05-10T05:16:46;25.10;46.00
75500;DHT22;64076;51.466;7.260;2023-05-10T05:19:12;25.10;46.00
75500;DHT22;64076;51.466;7.260;2023-05-10T05:21:37;25.10;45.90
75500;DHT22;64076;51.466;7.260;2023-05-10T05:24:03;25.10;45.90
75500;DHT22;64076;51.466;7.260;2023-05-10T05:26:29;25.10;45.90
75500;DHT22;64076;51.466;7.260;2023-05-10T05:28:54;25.20;45.80
75500;DHT22;64076;51.466;7.260;2023-05-10T05:31:20;25.10;45.80
75500;DHT22;64076;51.466;7.260;2023-05-10T05:33:46;25.10;45.80
75500;DHT22;64076;51.466;7.260;2023-05-10T05:36:11;25.10;45.80
75500;DHT22;64076;51.466;7.260;2023-05-10T05:38:37;25.10;45.80
75500;DHT22;64076;51.466;7.260;2023-05-10T05:41:03;25.10;45.80
75500;DHT22;64076;51.466;7.260;2023-05-10T05:43:28;25.20;45.80
75500;DHT22;64076;51.466;7.260;2023-05-10T05:45:54;25.20;45.80
75500;DHT22;64076;51.466;7.260;2023-05-10T05:48:20;25.20;45.70
75500;DHT22;64076;51.466;7.260;2023-05-10T05:50:45;25.20;45.70
75500;DHT22;64076;51.466;7.260;2023-05-10T05:53:12;25.20;45.70
75500;DHT22;64076;51.466;7.260;2023-05-10T05:55:38;25.20;45.80
75500;DHT22;64076;51.466;7.260;2023-05-10T05:58:03;25.20;45.80
75500;DHT22;64076;51.466;7.260;2023-05-10T06:00:29;25.30;45.80
75500;DHT22;64076;51.466;7.260;2023-05-10T06:02:54;25.30;45.80
75500;DHT22;64076;51.466;7.260;2023-05-10T06:05:20;25.30;45.80
75500;DHT22;64076;51.466;7.260;2023-05-10T06:07:46;25.30;45.80
75500;DHT22;64076;51.466;7.260;2023-05-10T06:10:11;25.30;45.80
75500;DHT22;64076;51.466;7.260;2023-05-10T06:12:37;25.20;45.90
75500;DHT22;64076;51.466;7.260;2023-05-10T06:15:03;25.30;45.90
75500;DHT22;64076;51.466;7.260;2023-05-10T06:17:29;25.30;45.90
75500;DHT22;64076;51.466;7.260;2023-05-10T06:19:55;25.30;45.90
75500;DHT22;64076;51.466;7.260;2023-05-10T06:22:21;25.30;45.90
75500;DHT22;64076;51.466;7.260;2023-05-10T06:24:48;25.40;45.90
75500;DHT22;64076;51.466;7.260;2023-05-10T06:27:14;25.40;45.80
75500;DHT22;64076;51.466;7.260;2023-05-10T06:29:39;25.50;45.80
75500;DHT22;64076;51.466;7.260;2023-05-10T06:32:05;25.50;45.60
75500;DHT22;64076;51.466;7.260;2023-05-10T06:34:30;25.50;45.50
75500;DHT22;64076;51.466;7.260;2023-05-10T06:36:56;25.60;45.90
75500;DHT22;64076;51.466;7.260;2023-05-10T06:39:22;25.60;45.60
75500;DHT22;64076;51.466;7.260;2023-05-10T06:41:51;25.60;45.60
75500;DHT22;64076;51.466;7.260;2023-05-10T06:44:16;25.60;45.50
75500;DHT22;64076;51.466;7.260;2023-05-10T06:46:42;25.60;45.50
75500;DHT22;64076;51.466;7.260;2023-05-10T06:49:07;25.60;45.50
75500;DHT22;64076;51.466;7.260;2023-05-10T06:51:33;25.70;45.40
75500;DHT22;64076;51.466;7.260;2023-05-10T06:53:59;25.60;45.60
75500;DHT22;64076;51.466;7.260;2023-05-10T06:56:25;25.60;45.70
75500;DHT22;64076;51.466;7.260;2023-05-10T06:58:51;25.60;45.70
75500;DHT22;64076;51.466;7.260;2023-05-10T07:01:16;25.50;46.00
75500;DHT22;64076;51.466;7.260;2023-05-10T07:03:42;25.40;46.10
75500;DHT22;64076;51.466;7.260;2023-05-10T07:06:08;25.40;46.20
75500;DHT22;64076;51.466;7.260;2023-05-10T07:08:34;25.30;46.10
75500;DHT22;64076;51.466;7.260;2023-05-10T07:11:03;25.30;46.20
75500;DHT22;64076;51.466;7.260;2023-05-10T07:13:33;25.40;46.10
75500;DHT22;64076;51.466;7.260;2023-05-10T07:15:59;25.40;46.20
75500;DHT22;64076;51.466;7.260;2023-05-10T07:18:25;25.50;46.00
75500;DHT22;64076;51.466;7.260;2023-05-10T07:20:51;25.50;46.00
75500;DHT22;64076;51.466;7.260;2023-05-10T07:23:17;25.60;45.90
75500;DHT22;64076;51.466;7.260;2023-05-10T07:25:48;25.50;45.90
75500;DHT22;64076;51.466;7.260;2023-05-10T07:28:15;25.60;46.00
75500;DHT22;64076;51.466;7.260;2023-05-10T07:30:41;25.60;45.90
75500;DHT22;64076;51.466;7.260;2023-05-10T07:33:08;25.60;45.90
75500;DHT22;64076;51.466;7.260;2023-05-10T07:35:34;25.60;45.90
75500;DHT22;64076;51.466;7.260;2023-05-10T07:38:00;25.60;45.90
75500;DHT22;64076;51.466;7.260;2023-05-10T07:40:25;25.60;45.90
75500;DHT22;64076;51.466;7.260;2023-05-10T07:42:51;25.60;45.80
75500;DHT22;64076;51.466;7.260;2023-05-10T07:45:18;25.60;45.70
75500;DHT22;64076;51.466;7.260;2023-05-10T07:47:43;25.60;45.80
75500;DHT22;64076;51.466;7.260;2023-05-10T07:50:09;25.50;45.80
75500;DHT22;64076;51.466;7.260;2023-05-10T07:52:34;25.60;45.80
75500;DHT22;64076;51.466;7.260;2023-05-10T07:55:00;25.60;45.90
75500;DHT22;64076;51.466;7.260;2023-05-10T07:57:26;25.70;45.70
75500;DHT22;64076;51.466;7.260;2023-05-10T07:59:51;25.70;45.70
75500;DHT22;64076;51.466;7.260;2023-05-10T08:02:17;25.70;45.70
75500;DHT22;64076;51.466;7.260;2023-05-10T08:04:42;25.70;45.60
75500;DHT22;64076;51.466;7.260;2023-05-10T08:07:08;25.70;45.40
75500;DHT22;64076;51.466;7.260;2023-05-10T08:09:33;25.70;45.40
75500;DHT22;64076;51.466;7.260;2023-05-10T08:11:59;25.70;45.40
75500;DHT22;64076;51.466;7.260;2023-05-10T08:14:27;25.70;45.30
75500;DHT22;64076;51.466;7.260;2023-05-10T08:16:52;25.80;45.30
75500;DHT22;64076;51.466;7.260;2023-05-10T08:19:18;25.80;45.50
75500;DHT22;64076;51.466;7.260;2023-05-10T08:21:45;25.80;45.40
75500;DHT22;64076;51.466;7.260;2023-05-10T08:24:11;25.80;45.40
75500;DHT22;64076;51.466;7.260;2023-05-10T08:26:36;25.80;45.20
75500;DHT22;64076;51.466;7.260;2023-05-10T08:29:02;25.80;45.40
75500;DHT22;64076;51.466;7.260;2023-05-10T08:31:27;25.80;45.50
75500;DHT22;64076;51.466;7.260;2023-05-10T08:33:53;25.80;45.70
75500;DHT22;64076;51.466;7.260;2023-05-10T08:36:19;25.80;45.50
75500;DHT22;64076;51.466;7.260;2023-05-10T08:38:54;25.80;45.50
75500;DHT22;64076;51.466;7.260;2023-05-10T08:41:20;25.80;45.40
75500;DHT22;64076;51.466;7.260;2023-05-10T08:43:47;25.90;45.40
75500;DHT22;64076;51.466;7.260;2023-05-10T08:46:17;25.90;45.20
75500;DHT22;64076;51.466;7.260;2023-05-10T08:48:44;25.90;45.00
75500;DHT22;64076;51.466;7.260;2023-05-10T08:51:13;25.90;45.00
75500;DHT22;64076;51.466;7.260;2023-05-10T08:53:40;25.90;44.80
75500;DHT22;64076;51.466;7.260;2023-05-10T08:56:06;25.90;44.80
75500;DHT22;64076;51.466;7.260;2023-05-10T08:58:31;25.90;44.70
75500;DHT22;64076;51.466;7.260;2023-05-10T09:00:58;25.90;44.80
75500;DHT22;64076;51.466;7.260;2023-05-10T09:03:24;25.90;44.80
75500;DHT22;64076;51.466;7.260;2023-05-10T09:05:50;25.90;44.80
75500;DHT22;64076;51.466;7.260;2023-05-10T09:08:16;25.90;44.90
75500;DHT22;64076;51.466;7.260;2023-05-10T09:10:43;25.90;44.80
75500;DHT22;64076;51.466;7.260;2023-05-10T09:13:10;25.90;44.90
75500;DHT22;64076;51.466;7.260;2023-05-10T09:15:37;25.80;45.00
75500;DHT22;64076;51.466;7.260;2023-05-10T09:18:03;25.90;44.80
75500;DHT22;64076;51.466;7.260;2023-05-10T09:20:29;25.90;44.70
75500;DHT22;64076;51.466;7.260;2023-05-10T09:22:54;25.90;44.60
75500;DHT22;64076;51.466;7.260;2023-05-10T09:25:20;26.00;44.40
75500;DHT22;64076;51.466;7.260;2023-05-10T09:27:47;26.00;44.50
75500;DHT22;64076;51.466;7.260;2023-05-10T09:30:18;26.00;44.40
75500;DHT22;64076;51.466;7.260;2023-05-10T09:32:48;26.00;44.30
75500;DHT22;64076;51.466;7.260;2023-05-10T09:35:17;26.00;44.40
75500;DHT22;64076;51.466;7.260;2023-05-10T09:37:45;26.10;44.30
75500;DHT22;64076;51.466;7.260;2023-05-10T09:40:14;26.10;44.20
75500;DHT22;64076;51.466;7.260;2023-05-10T09:42:53;26.00;44.10
75500;DHT22;64076;51.466;7.260;2023-05-10T09:45:20;26.10;44.10
75500;DHT22;64076;51.466;7.260;2023-05-10T09:47:46;26.10;44.10
75500;DHT22;64076;51.466;7.260;2023-05-10T09:50:12;26.10;44.10
75500;DHT22;64076;51.466;7.260;2023-05-10T09:53:01;26.10;44.10
75500;DHT22;64076;51.466;7.260;2023-05-10T09:55:42;26.10;43.90
75500;DHT22;64076;51.466;7.260;2023-05-10T09:58:10;26.10;43.90
75500;DHT22;64076;51.466;7.260;2023-05-10T10:00:37;26.10;44.00
75500;DHT22;64076;51.466;7.260;2023-05-10T10:03:04;26.10;43.90
75500;DHT22;64076;51.466;7.260;2023-05-10T10:05:34;26.00;44.00
75500;DHT22;64076;51.466;7.260;2023-05-10T10:08:02;26.10;43.90
75500;DHT22;64076;51.466;7.260;2023-05-10T10:10:28;26.10;44.00
75500;DHT22;64076;51.466;7.260;2023-05-10T10:12:54;26.10;44.00
75500;DHT22;64076;51.466;7.260;2023-05-10T10:15:22;26.10;43.90
75500;DHT22;64076;51.466;7.260;2023-05-10T10:17:49;26.10;43.80
75500;DHT22;64076;51.466;7.260;2023-05-10T10:20:15;26.10;43.80
75500;DHT22;64076;51.466;7.260;2023-05-10T10:22:41;26.10;43.90
75500;DHT22;64076;51.466;7.260;2023-05-10T10:25:07;26.20;43.70
75500;DHT22;64076;51.466;7.260;2023-05-10T10:35:39;26.20;43.40
75500;DHT22;64076;51.466;7.260;2023-05-10T10:38:08;26.30;43.60
75500;DHT22;64076;51.466;7.260;2023-05-10T10:40:34;26.30;43.30
75500;DHT22;64076;51.466;7.260;2023-05-10T10:43:27;26.30;43.20
75500;DHT22;64076;51.466;7.260;2023-05-10T10:46:13;26.30;43.00
75500;DHT22;64076;51.466;7.260;2023-05-10T10:48:40;26.30;42.80
75500;DHT22;64076;51.466;7.260;2023-05-10T10:51:06;26.30;42.80
75500;DHT22;64076;51.466;7.260;2023-05-10T10:53:32;26.30;42.70
75500;DHT22;64076;51.466;7.260;2023-05-10T10:56:12;26.30;42.70
75500;DHT22;64076;51.466;7.260;2023-05-10T10:58:42;26.30;42.50
75500;DHT22;64076;51.466;7.260;2023-05-10T11:01:18;26.40;42.50
75500;DHT22;64076;51.466;7.260;2023-05-10T11:06:35;26.40;42.70
75500;DHT22;64076;51.466;7.260;2023-05-10T11:09:11;26.40;42.60
75500;DHT22;64076;51.466;7.260;2023-05-10T11:11:50;26.40;42.80
75500;DHT22;64076;51.466;7.260;2023-05-10T11:14:20;26.30;42.30
75500;DHT22;64076;51.466;7.260;2023-05-10T11:16:46;26.30;42.50
75500;DHT22;64076;51.466;7.260;2023-05-10T11:19:13;26.30;42.20
75500;DHT22;64076;51.466;7.260;2023-05-10T11:24:22;26.30;42.20
75500;DHT22;64076;51.466;7.260;2023-05-10T11:26:50;26.20;42.40
75500;DHT22;64076;51.466;7.260;2023-05-10T11:29:16;26.10;42.60
75500;DHT22;64076;51.466;7.260;2023-05-10T11:31:46;26.00;42.70
75500;DHT22;64076;51.466;7.260;2023-05-10T11:34:26;25.90;42.60
75500;DHT22;64076;51.466;7.260;2023-05-10T11:36:56;25.90;42.80
75500;DHT22;64076;51.466;7.260;2023-05-10T11:39:29;25.90;42.70
75500;DHT22;64076;51.466;7.260;2023-05-10T11:41:55;25.90;43.10
75500;DHT22;64076;51.466;7.260;2023-05-10T11:44:21;25.90;42.70
75500;DHT22;64076;51.466;7.260;2023-05-10T11:46:46;25.90;42.70
75500;DHT22;64076;51.466;7.260;2023-05-10T11:49:12;25.90;42.60
75500;DHT22;64076;51.466;7.260;2023-05-10T11:51:38;26.00;42.30
75500;DHT22;64076;51.466;7.260;2023-05-10T11:54:10;26.00;42.40
75500;DHT22;64076;51.466;7.260;2023-05-10T11:56:39;26.00;42.50
75500;DHT22;64076;51.466;7.260;2023-05-10T11:59:05;25.90;42.50
75500;DHT22;64076;51.466;7.260;2023-05-10T12:01:31;25.70;42.70
75500;DHT22;64076;51.466;7.260;2023-05-10T12:03:57;25.70;42.70
75500;DHT22;64076;51.466;7.260;2023-05-10T12:06:27;25.70;42.80
75500;DHT22;64076;51.466;7.260;2023-05-10T12:08:54;25.60;42.90
75500;DHT22;64076;51.466;7.260;2023-05-10T12:11:20;25.60;42.80
75500;DHT22;64076;51.466;7.260;2023-05-10T12:13:49;25.50;43.10
75500;DHT22;64076;51.466;7.260;2023-05-10T12:16:28;25.60;43.10
75500;DHT22;64076;51.466;7.260;2023-05-10T12:19:00;25.70;43.30
75500;DHT22;64076;51.466;7.260;2023-05-10T12:21:28;25.70;42.70
75500;DHT22;64076;51.466;7.260;2023-05-10T12:23:56;25.80;42.80
75500;DHT22;64076;51.466;7.260;2023-05-10T12:26:25;25.70;42.70
75500;DHT22;64076;51.466;7.260;2023-05-10T12:28:53;25.50;43.10
75500;DHT22;64076;51.466;7.260;2023-05-10T12:31:18;25.30;43.30
75500;DHT22;64076;51.466;7.260;2023-05-10T12:33:45;25.30;43.60
75500;DHT22;64076;51.466;7.260;2023-05-10T12:36:13;25.40;43.40
75500;DHT22;64076;51.466;7.260;2023-05-10T12:38:40;25.40;43.40
75500;DHT22;64076;51.466;7.260;2023-05-10T12:41:12;25.30;43.30
75500;DHT22;64076;51.466;7.260;2023-05-10T12:43:39;25.30;43.40
75500;DHT22;64076;51.466;7.260;2023-05-10T12:46:16;25.20;43.50
75500;DHT22;64076;51.466;7.260;2023-05-10T12:48:43;25.20;43.50
75500;DHT22;64076;51.466;7.260;2023-05-10T12:51:09;25.20;43.60
75500;DHT22;64076;51.466;7.260;2023-05-10T12:53:38;25.20;43.70
75500;DHT22;64076;51.466;7.260;2023-05-10T12:56:04;25.20;43.50
75500;DHT22;64076;51.466;7.260;2023-05-10T12:58:29;25.40;43.30
75500;DHT22;64076;51.466;7.260;2023-05-10T13:00:55;25.50;43.10
75500;DHT22;64076;51.466;7.260;2023-05-10T13:03:22;25.60;43.00
75500;DHT22;64076;51.466;7.260;2023-05-10T13:05:47;25.70;42.80
75500;DHT22;64076;51.466;7.260;2023-05-10T13:08:15;25.80;42.70
75500;DHT22;64076;51.466;7.260;2023-05-10T13:10:40;25.80;42.60
75500;DHT22;64076;51.466;7.260;2023-05-10T13:13:06;25.90;42.50
75500;DHT22;64076;51.466;7.260;2023-05-10T13:15:32;26.00;42.50
75500;DHT22;64076;51.466;7.260;2023-05-10T13:17:58;26.00;42.30
75500;DHT22;64076;51.466;7.260;2023-05-10T13:20:24;26.00;42.20
75500;DHT22;64076;51.466;7.260;2023-05-10T13:22:50;26.10;42.20
75500;DHT22;64076;51.466;7.260;2023-05-10T13:25:16;26.10;42.30
75500;DHT22;64076;51.466;7.260;2023-05-10T13:27:42;26.10;42.20
75500;DHT22;64076;51.466;7.260;2023-05-10T13:30:08;26.10;42.10
75500;DHT22;64076;51.466;7.260;2023-05-10T13:32:34;26.10;41.90
75500;DHT22;64076;51.466;7.260;2023-05-10T13:35:00;26.10;41.80
75500;DHT22;64076;51.466;7.260;2023-05-10T13:37:26;26.10;41.60
75500;DHT22;64076;51.466;7.260;2023-05-10T13:39:51;26.10;41.40
75500;DHT22;64076;51.466;7.260;2023-05-10T13:42:17;26.20;41.40
75500;DHT22;64076;51.466;7.260;2023-05-10T13:44:43;26.20;41.30
75500;DHT22;64076;51.466;7.260;2023-05-10T13:47:09;26.20;41.30
75500;DHT22;64076;51.466;7.260;2023-05-10T13:49:35;26.20;41.20
75500;DHT22;64076;51.466;7.260;2023-05-10T13:52:01;26.20;41.10
75500;DHT22;64076;51.466;7.260;2023-05-10T13:54:35;26.20;41.10
75500;DHT22;64076;51.466;7.260;2023-05-10T13:57:01;26.30;41.10
75500;DHT22;64076;51.466;7.260;2023-05-10T13:59:28;26.30;41.00
75500;DHT22;64076;51.466;7.260;2023-05-10T14:01:54;26.30;41.00
75500;DHT22;64076;51.466;7.260;2023-05-10T14:04:19;26.30;41.00
75500;DHT22;64076;51.466;7.260;2023-05-10T14:06:45;26.30;40.80
75500;DHT22;64076;51.466;7.260;2023-05-10T14:09:11;26.30;40.80
75500;DHT22;64076;51.466;7.260;2023-05-10T14:11:36;26.30;40.60
75500;DHT22;64076;51.466;7.260;2023-05-10T14:14:02;26.30;40.40
75500;DHT22;64076;51.466;7.260;2023-05-10T14:16:27;26.30;40.40
75500;DHT22;64076;51.466;7.260;2023-05-10T14:18:53;26.30;40.30
75500;DHT22;64076;51.466;7.260;2023-05-10T14:21:19;26.30;40.20
75500;DHT22;64076;51.466;7.260;2023-05-10T14:23:44;26.30;40.10
75500;DHT22;64076;51.466;7.260;2023-05-10T14:26:10;26.30;40.10
75500;DHT22;64076;51.466;7.260;2023-05-10T14:28:36;26.30;39.90
75500;DHT22;64076;51.466;7.260;2023-05-10T14:31:01;26.30;39.90
75500;DHT22;64076;51.466;7.260;2023-05-10T14:33:27;26.30;39.90
75500;DHT22;64076;51.466;7.260;2023-05-10T14:35:54;26.30;39.90
75500;DHT22;64076;51.466;7.260;2023-05-10T14:38:23;26.30;39.90
75500;DHT22;64076;51.466;7.260;2023-05-10T14:40:50;26.30;39.80
75500;DHT22;64076;51.466;7.260;2023-05-10T14:43:16;26.30;39.90
75500;DHT22;64076;51.466;7.260;2023-05-10T14:45:41;26.30;40.00
75500;DHT22;64076;51.466;7.260;2023-05-10T14:48:07;26.30;39.90
75500;DHT22;64076;51.466;7.260;2023-05-10T14:50:36;26.30;39.90
75500;DHT22;64076;51.466;7.260;2023-05-10T14:53:02;26.30;40.00
75500;DHT22;64076;51.466;7.260;2023-05-10T14:55:27;26.30;40.00
75500;DHT22;64076;51.466;7.260;2023-05-10T14:57:53;26.30;40.10
75500;DHT22;64076;51.466;7.260;2023-05-10T15:00:18;26.30;40.10
75500;DHT22;64076;51.466;7.260;2023-05-10T15:02:44;26.30;40.10
75500;DHT22;64076;51.466;7.260;2023-05-10T15:05:10;26.30;39.90
75500;DHT22;64076;51.466;7.260;2023-05-10T15:07:35;26.20;40.00
75500;DHT22;64076;51.466;7.260;2023-05-10T15:10:01;26.20;40.00
75500;DHT22;64076;51.466;7.260;2023-05-10T15:12:27;26.20;40.00
75500;DHT22;64076;51.466;7.260;2023-05-10T15:14:53;26.20;39.90
75500;DHT22;64076;51.466;7.260;2023-05-10T15:17:18;26.10;39.80
75500;DHT22;64076;51.466;7.260;2023-05-10T15:19:44;26.10;39.80
75500;DHT22;64076;51.466;7.260;2023-05-10T15:22:10;26.10;39.70
75500;DHT22;64076;51.466;7.260;2023-05-10T15:24:35;26.10;39.80
75500;DHT22;64076;51.466;7.260;2023-05-10T15:27:01;26.10;39.80
75500;DHT22;64076;51.466;7.260;2023-05-10T15:29:26;26.00;39.80
75500;DHT22;64076;51.466;7.260;2023-05-10T15:31:52;26.00;39.80
75500;DHT22;64076;51.466;7.260;2023-05-10T15:34:18;26.00;39.70
75500;DHT22;64076;51.466;7.260;2023-05-10T15:36:44;26.00;39.70
75500;DHT22;64076;51.466;7.260;2023-05-10T15:39:10;26.00;39.60
75500;DHT22;64076;51.466;7.260;2023-05-10T15:41:36;26.00;39.60
75500;DHT22;64076;51.466;7.260;2023-05-10T15:44:01;26.00;39.70
75500;DHT22;64076;51.466;7.260;2023-05-10T15:46:28;26.00;39.70
75500;DHT22;64076;51.466;7.260;2023-05-10T15:48:54;26.00;40.00
75500;DHT22;64076;51.466;7.260;2023-05-10T15:51:19;25.90;40.10
75500;DHT22;64076;51.466;7.260;2023-05-10T15:53:45;25.90;40.20
75500;DHT22;64076;51.466;7.260;2023-05-10T15:56:11;25.90;40.30
75500;DHT22;64076;51.466;7.260;2023-05-10T15:58:37;25.90;40.40